KOKK/OKK METAR and TAF weather

Enter ICAO airport designator
Station Type Date Time Source
KOKK METAR 2019/06/19 00:56 UTC NOAA

KOKK 190056Z AUTO 17003KT 10SM CLR 25/19 A2985 RMK AO2 SLP105 T02500194


Station Type Date Time Source
KOKK Decoded METAR 2019/06/19 00:56 UTC NOAA

Kokomo, Kokomo Municipal Airport, IN, United States (KOKK) 40-32N 086-04W
Jun 18, 2019 - 08:56 PM EDT / 2019.06.19 0056 UTC
Wind: from the S (170 degrees) at 3 MPH (3 KT):0
Visibility: 10 mile(s):0
Sky conditions: clear
Temperature: 77.0 F (25.0 C)
Dew Point: 66.9 F (19.4 C)
Relative Humidity: 71%
Pressure (altimeter): 29.85 in. Hg (1010 hPa)
ob: KOKK 190056Z AUTO 17003KT 10SM CLR 25/19 A2985 RMK AO2 SLP105 T02500194
cycle: 1

Station Type Date Time Source
KOKK TAF UTC NOAA

Error!

Example: see airport list